createdAt,value
2022-09-26T00:00:12.732Z,19.48
2022-09-26T00:02:43.218Z,19.83
2022-09-26T00:05:14.117Z,22.38
2022-09-26T00:07:44.439Z,19.88
2022-09-26T00:10:14.936Z,20.60
2022-09-26T00:12:45.561Z,22.80
2022-09-26T00:15:15.812Z,20.60
2022-09-26T00:17:46.203Z,22.70
2022-09-26T00:20:16.501Z,22.10
2022-09-26T00:22:46.800Z,22.67
2022-09-26T00:25:17.679Z,22.85
2022-09-26T00:27:48.023Z,21.23
2022-09-26T00:30:18.512Z,22.60
2022-09-26T00:32:49.329Z,21.75
2022-09-26T00:35:19.686Z,20.17
2022-09-26T00:37:49.941Z,20.70
2022-09-26T00:40:20.805Z,23.88
2022-09-26T00:42:54.084Z,22.70
2022-09-26T00:45:28.484Z,22.20
2022-09-26T00:48:03.384Z,20.95
2022-09-26T00:50:40.231Z,22.63
2022-09-26T00:53:17.588Z,22.95
2022-09-26T00:55:54.464Z,22.95
2022-09-26T00:58:32.115Z,25.77
2022-09-26T01:01:04.167Z,26.08
2022-09-26T01:03:36.464Z,25.60
2022-09-26T01:06:07.222Z,27.23
2022-09-26T01:08:44.396Z,27.83
2022-09-26T01:11:17.474Z,28.45
2022-09-26T01:13:48.933Z,31.33
2022-09-26T01:16:19.324Z,36.22
2022-09-26T01:18:50.954Z,31.50
2022-09-26T01:21:50.305Z,28.92
2022-09-26T01:24:43.446Z,27.60
2022-09-26T01:27:43.398Z,27.50
2022-09-26T01:30:21.319Z,26.13
2022-09-26T01:33:24.187Z,25.77
2022-09-26T01:36:23.332Z,24.95
2022-09-26T01:39:24.110Z,24.25
2022-09-26T01:42:13.831Z,23.05
2022-09-26T01:45:15.203Z,23.80
2022-09-26T01:47:59.141Z,22.20
2022-09-26T01:50:43.832Z,21.83
2022-09-26T01:53:44.674Z,22.15
2022-09-26T01:56:22.636Z,24.15
2022-09-26T01:59:03.874Z,24.40
2022-09-26T02:01:42.457Z,22.85
2022-09-26T02:04:20.476Z,23.42
2022-09-26T02:07:03.165Z,23.95
2022-09-26T02:09:51.229Z,23.75
2022-09-26T02:12:27.337Z,22.63
2022-09-26T02:15:03.180Z,20.00
2022-09-26T02:17:38.422Z,19.95
2022-09-26T02:20:18.112Z,21.00
2022-09-26T02:22:49.011Z,22.85
2022-09-26T02:25:19.649Z,24.63
2022-09-26T02:27:52.062Z,21.65
2022-09-26T02:30:22.844Z,21.58
2022-09-26T02:32:53.331Z,23.08
2022-09-26T02:35:36.989Z,23.50
2022-09-26T02:38:07.701Z,25.92
2022-09-26T02:40:56.577Z,25.08
2022-09-26T02:43:46.791Z,21.90
2022-09-26T02:46:48.278Z,20.17
2022-09-26T02:49:48.901Z,18.10
2022-09-26T02:52:45.438Z,20.00
2022-09-26T02:55:39.903Z,21.42
2022-09-26T02:58:29.624Z,20.70
2022-09-26T03:01:20.333Z,19.90
2022-09-26T03:04:07.164Z,22.45
2022-09-26T03:06:42.252Z,21.95
2022-09-26T03:09:15.219Z,22.75
2022-09-26T03:11:46.975Z,20.15
2022-09-26T03:14:19.294Z,21.55
2022-09-26T03:16:50.829Z,20.65
2022-09-26T03:19:46.626Z,19.45
2022-09-26T03:22:19.101Z,17.92
2022-09-26T03:24:51.191Z,20.13
2022-09-26T03:27:22.585Z,18.67
2022-09-26T03:29:53.052Z,21.25
2022-09-26T03:32:23.827Z,19.95
2022-09-26T03:34:54.234Z,18.52
2022-09-26T03:37:24.077Z,20.23
2022-09-26T03:42:23.504Z,19.15
2022-09-26T03:44:53.297Z,20.15
2022-09-26T03:47:23.070Z,22.95
2022-09-26T03:49:53.009Z,21.67
2022-09-26T03:52:23.422Z,19.15
2022-09-26T03:54:53.421Z,21.08
2022-09-26T03:57:23.931Z,21.70
2022-09-26T03:59:53.684Z,19.90
2022-09-26T04:02:24.257Z,21.50
2022-09-26T04:04:54.075Z,19.85
2022-09-26T04:09:53.917Z,20.90
2022-09-26T04:12:24.025Z,21.77
2022-09-26T04:14:54.646Z,20.70
2022-09-26T04:17:24.423Z,23.30
2022-09-26T04:19:54.285Z,20.55
2022-09-26T04:22:24.310Z,18.95
2022-09-26T04:24:54.943Z,19.70
2022-09-26T04:27:25.004Z,17.63
2022-09-26T04:29:54.822Z,24.73
2022-09-26T04:32:24.600Z,23.05
2022-09-26T04:34:54.575Z,25.63
2022-09-26T04:37:24.998Z,23.85
2022-09-26T04:39:54.978Z,23.85
2022-09-26T04:42:26.798Z,23.25
2022-09-26T04:44:57.035Z,23.80
2022-09-26T04:47:26.778Z,23.95
2022-09-26T04:52:26.401Z,23.58
2022-09-26T04:54:56.219Z,23.58
2022-09-26T04:57:26.012Z,22.60
2022-09-26T04:59:56.000Z,24.38
2022-09-26T05:02:25.924Z,22.27
2022-09-26T05:04:57.047Z,24.52
2022-09-26T05:07:29.683Z,25.23
2022-09-26T05:09:59.949Z,25.27
2022-09-26T05:12:29.785Z,27.33
2022-09-26T05:15:00.151Z,26.73
2022-09-26T05:17:30.183Z,27.40
2022-09-26T05:20:03.168Z,27.95
2022-09-26T05:22:34.398Z,25.13
2022-09-26T05:25:16.169Z,26.95
2022-09-26T05:27:46.220Z,24.83
2022-09-26T05:30:16.480Z,24.67
2022-09-26T05:32:50.145Z,23.42
2022-09-26T05:35:20.066Z,23.65
2022-09-26T05:37:50.675Z,23.98
2022-09-26T05:40:37.205Z,24.00
2022-09-26T05:43:07.299Z,24.05
2022-09-26T05:45:37.998Z,25.80
2022-09-26T05:48:08.837Z,26.65
2022-09-26T05:50:43.357Z,25.60
2022-09-26T05:53:14.084Z,21.65
2022-09-26T05:55:44.122Z,24.17
2022-09-26T05:58:16.589Z,22.92
2022-09-26T06:00:49.592Z,24.67
2022-09-26T06:03:19.839Z,23.98
2022-09-26T06:05:49.723Z,24.17
2022-09-26T06:08:19.771Z,20.58
2022-09-26T06:10:49.805Z,21.42
2022-09-26T06:13:19.547Z,21.33
2022-09-26T06:18:20.450Z,22.23
2022-09-26T06:20:50.500Z,21.70
2022-09-26T06:23:20.427Z,21.75
2022-09-26T06:25:50.281Z,24.30
2022-09-26T06:28:20.199Z,23.23
2022-09-26T06:30:50.081Z,21.77
2022-09-26T06:33:20.209Z,19.45
2022-09-26T06:36:01.065Z,20.38
2022-09-26T06:38:31.423Z,22.30
2022-09-26T06:41:01.436Z,19.02
2022-09-26T06:43:33.141Z,20.95
2022-09-26T06:46:02.903Z,20.63
2022-09-26T06:51:02.247Z,19.60
2022-09-26T06:53:33.107Z,20.80
2022-09-26T06:56:03.761Z,23.92
2022-09-26T06:58:33.925Z,22.58
2022-09-26T07:01:04.250Z,21.77
2022-09-26T07:03:34.491Z,21.20
2022-09-26T07:06:04.986Z,18.17
2022-09-26T07:09:00.788Z,17.05
2022-09-26T07:11:41.864Z,19.80
2022-09-26T07:16:51.174Z,18.52
2022-09-26T07:19:21.507Z,19.80
2022-09-26T07:21:51.345Z,20.83
2022-09-26T07:24:21.296Z,19.38
2022-09-26T07:26:51.180Z,21.50
2022-09-26T07:29:21.070Z,19.77
2022-09-26T07:31:52.937Z,17.25
2022-09-26T07:34:26.693Z,17.80
2022-09-26T07:36:56.673Z,22.38
2022-09-26T07:39:26.651Z,19.52
2022-09-26T07:41:56.551Z,17.30
2022-09-26T07:45:20.443Z,17.92
2022-09-26T07:47:35.239Z,18.05
2022-09-26T07:50:15.058Z,17.70
2022-09-26T07:55:21.999Z,17.83
2022-09-26T07:57:51.963Z,23.35
2022-09-26T08:00:23.160Z,21.98
2022-09-26T08:02:54.507Z,19.45
2022-09-26T08:05:26.275Z,20.15
2022-09-26T08:07:59.092Z,20.48
2022-09-26T08:10:28.861Z,19.80
2022-09-26T08:12:58.947Z,21.23
2022-09-26T08:15:29.297Z,17.50
2022-09-26T08:17:59.601Z,19.75
2022-09-26T08:20:32.252Z,20.23
2022-09-26T08:23:03.235Z,19.92
2022-09-26T08:25:33.588Z,20.45
2022-09-26T08:28:04.122Z,20.50
2022-09-26T08:30:34.664Z,21.88
2022-09-26T08:33:05.234Z,19.00
2022-09-26T08:35:40.664Z,21.30
2022-09-26T08:38:13.458Z,19.73
2022-09-26T08:41:05.539Z,20.95
2022-09-26T08:44:09.532Z,20.60
2022-09-26T08:47:08.593Z,19.42
2022-09-26T08:50:18.110Z,23.38
2022-09-26T08:52:59.841Z,19.63
2022-09-26T08:55:35.648Z,18.48
2022-09-26T08:58:17.379Z,19.92
2022-09-26T09:00:50.807Z,19.45
2022-09-26T09:03:46.254Z,21.20
2022-09-26T09:06:17.899Z,19.08
2022-09-26T09:08:59.654Z,17.98
2022-09-26T09:12:01.434Z,17.30
2022-09-26T09:15:23.955Z,15.90
2022-09-26T09:18:22.427Z,16.30
2022-09-26T09:21:22.055Z,15.95
2022-09-26T09:24:18.604Z,12.57
2022-09-26T09:30:32.455Z,16.92
2022-09-26T09:33:09.188Z,15.43
2022-09-26T09:35:57.849Z,14.15
2022-09-26T09:38:32.988Z,15.65
2022-09-26T09:41:14.977Z,15.25
2022-09-26T09:43:52.454Z,14.68
2022-09-26T09:46:33.476Z,15.65
2022-09-26T09:49:29.964Z,16.38
2022-09-26T09:52:35.375Z,12.85
2022-09-26T09:55:43.631Z,13.38
2022-09-26T09:58:34.749Z,16.70
2022-09-26T10:01:31.196Z,18.58
2022-09-26T10:04:34.610Z,12.93
2022-09-26T10:07:06.124Z,15.98
2022-09-26T10:09:42.616Z,11.27
2022-09-26T10:12:22.885Z,13.77
2022-09-26T10:15:03.340Z,11.15
2022-09-26T10:17:34.183Z,12.00
2022-09-26T10:20:04.773Z,12.80
2022-09-26T10:22:40.207Z,12.20
2022-09-26T10:25:23.891Z,11.65
2022-09-26T10:27:59.158Z,13.00
2022-09-26T10:30:34.552Z,11.63
2022-09-26T10:33:07.376Z,10.77
2022-09-26T10:35:48.192Z,13.93
2022-09-26T10:38:33.851Z,13.35
2022-09-26T10:41:05.690Z,13.52
2022-09-26T10:43:40.107Z,13.68
2022-09-26T10:46:16.987Z,13.35
2022-09-26T10:48:59.302Z,11.15
2022-09-26T10:51:40.207Z,9.82
2022-09-26T10:54:19.130Z,9.10
2022-09-26T10:56:57.180Z,9.50
2022-09-26T10:59:31.304Z,9.48
2022-09-26T11:02:03.728Z,9.80
2022-09-26T11:04:57.307Z,9.82
2022-09-26T11:07:37.278Z,9.95
2022-09-26T11:10:14.133Z,10.32
2022-09-26T11:13:02.237Z,10.52
2022-09-26T11:15:33.544Z,11.27
2022-09-26T11:18:04.885Z,10.25
2022-09-26T11:20:50.190Z,10.80
2022-09-26T11:23:38.586Z,11.63
2022-09-26T11:26:35.676Z,10.70
2022-09-26T11:29:39.607Z,10.65
2022-09-26T11:32:15.904Z,12.35
2022-09-26T11:34:47.044Z,13.75
2022-09-26T11:37:37.233Z,12.35
2022-09-26T11:40:34.805Z,13.98
2022-09-26T11:43:19.119Z,15.30
2022-09-26T11:46:11.158Z,16.25
2022-09-26T11:48:57.389Z,16.38
2022-09-26T11:51:48.365Z,16.42
2022-09-26T11:54:40.595Z,17.48
2022-09-26T11:57:31.145Z,19.08
2022-09-26T12:00:29.835Z,16.90
2022-09-26T12:03:33.706Z,17.00
2022-09-26T12:06:30.135Z,16.55
2022-09-26T12:09:16.966Z,17.98
2022-09-26T12:12:18.264Z,19.00
2022-09-26T12:15:12.146Z,21.08
2022-09-26T12:18:08.408Z,20.67
2022-09-26T12:21:00.231Z,19.95
2022-09-26T12:23:42.802Z,21.13
2022-09-26T12:26:32.393Z,20.00
2022-09-26T12:29:26.443Z,21.08
2022-09-26T12:32:14.796Z,21.15
2022-09-26T12:35:03.264Z,20.45
2022-09-26T12:37:55.456Z,23.58
2022-09-26T12:41:05.034Z,21.63
2022-09-26T12:44:10.063Z,23.48
2022-09-26T12:47:08.640Z,19.98
2022-09-26T12:50:05.867Z,21.42
2022-09-26T12:53:14.975Z,20.90
2022-09-26T12:56:11.158Z,19.92
2022-09-26T12:59:06.743Z,22.58
2022-09-26T13:02:05.568Z,24.33
2022-09-26T13:05:01.670Z,25.08
2022-09-26T13:07:55.793Z,20.17
2022-09-26T13:11:04.965Z,20.30
2022-09-26T13:14:00.972Z,20.80
2022-09-26T13:17:11.946Z,21.90
2022-09-26T13:20:02.036Z,19.25
2022-09-26T13:22:45.221Z,18.95
2022-09-26T13:25:22.015Z,17.75
2022-09-26T13:28:12.892Z,19.80
2022-09-26T13:31:01.723Z,19.10
2022-09-26T13:33:54.874Z,21.40
2022-09-26T13:36:26.605Z,18.67
2022-09-26T13:39:35.780Z,20.35
2022-09-26T13:42:22.927Z,19.02
2022-09-26T13:45:27.493Z,19.85
2022-09-26T13:48:12.957Z,18.45
2022-09-26T13:51:08.405Z,19.13
2022-09-26T13:53:46.196Z,19.95
2022-09-26T13:56:43.894Z,19.88
2022-09-26T13:59:36.633Z,18.63
2022-09-26T14:02:20.615Z,17.27
2022-09-26T14:04:54.357Z,17.60
2022-09-26T14:08:08.215Z,17.25
2022-09-26T14:10:42.095Z,17.48
2022-09-26T14:13:34.278Z,15.35
2022-09-26T14:16:07.206Z,18.17
2022-09-26T14:19:09.542Z,17.55
2022-09-26T14:21:46.951Z,18.23
2022-09-26T14:24:39.431Z,15.00
2022-09-26T14:27:43.711Z,18.48
2022-09-26T14:30:28.168Z,18.27
2022-09-26T14:33:04.962Z,19.10
2022-09-26T14:35:40.497Z,22.73
2022-09-26T14:38:18.863Z,25.35
2022-09-26T14:40:59.960Z,24.50
2022-09-26T14:43:33.405Z,26.30
2022-09-26T14:46:08.102Z,25.88
2022-09-26T14:48:41.651Z,26.38
2022-09-26T14:51:35.014Z,27.98
2022-09-26T14:54:25.593Z,30.70
2022-09-26T14:57:06.753Z,26.13
2022-09-26T14:59:45.232Z,25.27
2022-09-26T15:02:30.745Z,23.52
2022-09-26T15:05:17.315Z,22.17
2022-09-26T15:07:53.269Z,20.95
2022-09-26T15:10:37.587Z,21.10
2022-09-26T15:13:31.078Z,22.48
2022-09-26T15:16:22.549Z,22.90
2022-09-26T15:19:13.679Z,26.17
2022-09-26T15:21:51.140Z,22.92
2022-09-26T15:24:35.263Z,25.15
2022-09-26T15:27:29.488Z,24.40
2022-09-26T15:30:16.283Z,20.45
2022-09-26T15:32:51.218Z,22.00
2022-09-26T15:35:21.770Z,22.38
2022-09-26T15:37:52.237Z,20.88
2022-09-26T15:40:26.800Z,20.58
2022-09-26T15:43:22.469Z,19.27
2022-09-26T15:46:07.305Z,19.55
2022-09-26T15:48:46.823Z,21.25
2022-09-26T15:51:30.615Z,19.98
2022-09-26T15:54:06.297Z,20.88
2022-09-26T15:56:42.632Z,19.05
2022-09-26T15:59:20.976Z,23.25
2022-09-26T16:01:51.716Z,27.17
2022-09-26T16:04:25.848Z,23.80
2022-09-26T16:07:02.434Z,25.30
2022-09-26T16:09:36.558Z,25.85
2022-09-26T16:12:21.288Z,23.42
2022-09-26T16:14:56.942Z,26.13
2022-09-26T16:17:49.415Z,24.25
2022-09-26T16:20:31.452Z,24.85
2022-09-26T16:23:05.374Z,23.25
2022-09-26T16:25:58.496Z,24.10
2022-09-26T16:28:47.090Z,24.17
2022-09-26T16:31:26.587Z,23.50
2022-09-26T16:33:59.802Z,21.45
2022-09-26T16:36:33.310Z,23.60
2022-09-26T16:39:06.732Z,23.17
2022-09-26T16:42:01.211Z,21.10
2022-09-26T16:44:39.166Z,22.30
2022-09-26T16:47:46.482Z,21.58
2022-09-26T16:50:36.079Z,21.02
2022-09-26T16:53:11.922Z,20.63
2022-09-26T16:55:42.286Z,20.98
2022-09-26T16:58:16.792Z,21.42
2022-09-26T17:00:58.466Z,22.35
2022-09-26T17:03:32.985Z,19.60
2022-09-26T17:06:03.444Z,20.30
2022-09-26T17:08:36.801Z,20.60
2022-09-26T17:11:12.879Z,22.63
2022-09-26T17:13:44.943Z,22.85
2022-09-26T17:16:15.955Z,21.92
2022-09-26T17:18:46.888Z,22.58
2022-09-26T17:21:17.232Z,23.10
2022-09-26T17:23:47.642Z,21.58
2022-09-26T17:26:24.220Z,21.27
2022-09-26T17:28:56.481Z,20.38
2022-09-26T17:31:27.048Z,20.42
2022-09-26T17:33:57.681Z,20.65
2022-09-26T17:36:30.333Z,20.17
2022-09-26T17:39:02.616Z,22.65
2022-09-26T17:41:36.651Z,18.60
2022-09-26T17:44:07.111Z,19.55
2022-09-26T17:46:40.329Z,20.95
2022-09-26T17:49:16.410Z,19.92
2022-09-26T17:51:46.955Z,23.13
2022-09-26T17:54:22.456Z,22.00
2022-09-26T17:56:53.088Z,22.45
2022-09-26T17:59:26.394Z,21.35
2022-09-26T18:02:03.155Z,20.08
2022-09-26T18:04:34.113Z,22.15
2022-09-26T18:07:06.748Z,20.80
2022-09-26T18:09:38.583Z,21.05
2022-09-26T18:12:12.214Z,20.30
2022-09-26T18:14:43.883Z,20.27
2022-09-26T18:17:18.294Z,19.17
2022-09-26T18:19:49.081Z,18.98
2022-09-26T18:22:21.981Z,20.45
2022-09-26T18:24:54.314Z,23.25
2022-09-26T18:27:25.376Z,25.38
2022-09-26T18:29:56.937Z,22.73
2022-09-26T18:32:33.855Z,24.00
2022-09-26T18:35:04.350Z,21.90
2022-09-26T18:37:34.879Z,22.92
2022-09-26T18:40:05.400Z,24.08
2022-09-26T18:42:37.441Z,21.17
2022-09-26T18:45:10.579Z,23.05
2022-09-26T18:47:45.265Z,20.40
2022-09-26T18:50:36.576Z,23.30
2022-09-26T18:53:15.196Z,23.52
2022-09-26T18:55:55.394Z,23.20
2022-09-26T18:58:27.351Z,22.13
2022-09-26T19:01:03.079Z,22.40
2022-09-26T19:03:40.813Z,21.15
2022-09-26T19:06:18.700Z,21.90
2022-09-26T19:08:53.203Z,18.85
2022-09-26T19:11:26.782Z,20.40
2022-09-26T19:13:59.593Z,16.90
2022-09-26T19:16:30.050Z,18.17
2022-09-26T19:19:00.708Z,18.63
2022-09-26T19:21:42.101Z,18.83
2022-09-26T19:24:51.308Z,16.52
2022-09-26T19:27:26.052Z,16.95
2022-09-26T19:30:12.733Z,17.98
2022-09-26T19:32:45.896Z,17.13
2022-09-26T19:35:33.494Z,16.50
2022-09-26T19:38:05.767Z,18.05
2022-09-26T19:40:36.274Z,18.55
2022-09-26T19:43:07.793Z,18.02
2022-09-26T19:45:38.368Z,19.02
2022-09-26T19:48:13.123Z,20.25
2022-09-26T19:50:44.631Z,18.38
2022-09-26T19:53:19.798Z,24.15
2022-09-26T19:55:52.402Z,25.17
2022-09-26T19:58:27.978Z,26.45
2022-09-26T20:01:01.372Z,36.75
2022-09-26T20:03:37.540Z,52.20
2022-09-26T20:06:23.947Z,41.83
2022-09-26T20:09:01.261Z,37.55
2022-09-26T20:11:32.314Z,30.33
2022-09-26T20:14:20.058Z,22.88
2022-09-26T20:16:50.591Z,20.65
2022-09-26T20:19:41.042Z,18.77
2022-09-26T20:22:20.111Z,18.63
2022-09-26T20:24:54.261Z,18.97
2022-09-26T20:27:29.937Z,19.30
2022-09-26T20:30:11.072Z,17.67
2022-09-26T20:32:43.586Z,19.50
2022-09-26T20:35:17.620Z,18.10
2022-09-26T20:37:48.179Z,17.95
2022-09-26T20:40:24.756Z,18.95
2022-09-26T20:43:01.063Z,17.33
2022-09-26T20:45:41.371Z,18.20
2022-09-26T20:48:21.128Z,17.63
2022-09-26T20:50:52.380Z,18.95
2022-09-26T20:53:25.511Z,19.65
2022-09-26T20:55:57.287Z,17.20
2022-09-26T20:58:27.891Z,17.52
2022-09-26T21:00:58.555Z,17.60
2022-09-26T21:03:30.290Z,18.25
2022-09-26T21:06:00.623Z,17.52
2022-09-26T21:08:32.796Z,17.50
2022-09-26T21:11:03.121Z,19.08
2022-09-26T21:13:33.735Z,17.63
2022-09-26T21:16:04.267Z,18.85
2022-09-26T21:18:34.980Z,18.20
2022-09-26T21:21:08.967Z,21.45
2022-09-26T21:23:45.109Z,16.75
2022-09-26T21:26:22.697Z,18.70
2022-09-26T21:28:54.698Z,17.20
2022-09-26T21:31:35.534Z,18.20
2022-09-26T21:34:07.681Z,18.25
2022-09-26T21:36:41.919Z,17.25
2022-09-26T21:39:12.339Z,17.73
2022-09-26T21:41:42.862Z,16.83
2022-09-26T21:44:30.662Z,17.08
2022-09-26T21:47:00.907Z,17.92
2022-09-26T21:49:31.316Z,17.60
2022-09-26T21:52:12.810Z,18.65
2022-09-26T21:54:46.044Z,16.50
2022-09-26T21:57:21.264Z,17.08
2022-09-26T21:59:53.623Z,14.88
2022-09-26T22:02:24.197Z,16.33
2022-09-26T22:04:54.818Z,15.25
2022-09-26T22:07:25.383Z,16.00
2022-09-26T22:09:55.676Z,14.57
2022-09-26T22:12:26.105Z,15.65
2022-09-26T22:14:56.450Z,15.32
2022-09-26T22:17:26.807Z,16.30
2022-09-26T22:19:57.182Z,18.00
2022-09-26T22:22:28.209Z,17.92
2022-09-26T22:25:04.360Z,17.25
2022-09-26T22:27:36.478Z,15.23
2022-09-26T22:30:08.017Z,15.68
2022-09-26T22:32:38.550Z,16.73
2022-09-26T22:35:09.293Z,16.42
2022-09-26T22:37:41.740Z,15.88
2022-09-26T22:40:12.489Z,17.52
2022-09-26T22:42:42.874Z,17.23
2022-09-26T22:45:13.627Z,16.55
2022-09-26T22:47:50.668Z,16.80
2022-09-26T22:50:21.027Z,17.27
2022-09-26T22:52:51.485Z,15.60
2022-09-26T22:55:22.271Z,17.45
2022-09-26T22:57:53.720Z,17.77
2022-09-26T23:00:24.071Z,17.08
2022-09-26T23:02:54.395Z,17.38
2022-09-26T23:05:24.800Z,17.40
2022-09-26T23:07:56.796Z,16.80
2022-09-26T23:10:27.282Z,17.38
2022-09-26T23:12:57.568Z,18.95
2022-09-26T23:15:27.896Z,18.45
2022-09-26T23:17:58.366Z,20.13
2022-09-26T23:20:28.683Z,17.67
2022-09-26T23:22:59.298Z,18.40
2022-09-26T23:25:29.748Z,16.35
2022-09-26T23:28:00.076Z,17.13
2022-09-26T23:30:30.406Z,18.35
2022-09-26T23:33:00.830Z,15.80
2022-09-26T23:35:31.255Z,16.50
2022-09-26T23:38:01.568Z,15.32
2022-09-26T23:44:18.571Z,16.10
2022-09-26T23:46:48.880Z,14.88
2022-09-26T23:49:19.409Z,15.43
2022-09-26T23:51:49.913Z,16.75
2022-09-26T23:54:20.297Z,17.20
2022-09-26T23:56:50.742Z,16.92
2022-09-26T23:59:21.332Z,16.10
